Time;durP1;ratioP1;P1;durP2;ratioP2;P2;SDS_P1;SDS_P2;PMS_P1;PMS_P2;Temp;Humidity;BMP_temperature;BMP_pressure;BME280_temperature;BME280_humidity;BME280_pressure;Samples;Min_cycle;Max_cycle;Signal;HPM_P1;HPM_P2
2023/10/21 00:00:58;;;;;;;4.30;4.20;;;21.00;98.40;;;;;;5021476;28;20868;-66
2023/10/21 00:03:25;;;;;;;4.57;4.50;;;21.00;98.40;;;;;;5019987;28;20505;-66
2023/10/21 00:05:52;;;;;;;4.30;4.20;;;21.00;98.40;;;;;;5021439;28;20454;-66
2023/10/21 00:08:20;;;;;;;4.87;4.77;;;21.00;98.40;;;;;;5023711;28;20523;-65
2023/10/21 00:10:47;;;;;;;4.70;4.50;;;21.00;98.50;;;;;;5022737;28;20467;-66
2023/10/21 00:13:14;;;;;;;5.00;4.70;;;21.00;98.50;;;;;;5020025;28;20477;-66
2023/10/21 00:15:42;;;;;;;4.30;4.20;;;21.00;98.60;;;;;;5023334;28;20484;-66
2023/10/21 00:18:09;;;;;;;4.70;4.60;;;21.00;98.60;;;;;;5016413;28;20478;-66
2023/10/21 00:20:36;;;;;;;4.87;4.67;;;21.00;98.60;;;;;;5030172;28;20503;-66
2023/10/21 00:23:03;;;;;;;4.83;4.40;;;21.00;98.50;;;;;;5024598;28;20504;-66
2023/10/21 00:25:30;;;;;;;4.90;4.80;;;21.00;98.50;;;;;;5024149;28;20473;-66
2023/10/21 00:27:56;;;;;;;4.90;4.70;;;21.00;98.60;;;;;;5025833;28;20520;-66
2023/10/21 00:30:23;;;;;;;4.13;4.03;;;21.00;98.60;;;;;;5025152;28;20489;-66
2023/10/21 00:32:52;;;;;;;4.50;4.40;;;21.00;98.70;;;;;;5023754;28;20488;-66
2023/10/21 00:35:18;;;;;;;4.80;4.70;;;21.00;98.70;;;;;;5024193;28;20484;-66
2023/10/21 00:37:45;;;;;;;4.17;4.07;;;21.00;98.70;;;;;;5023850;28;20462;-66
2023/10/21 00:40:13;;;;;;;4.70;4.60;;;21.00;98.70;;;;;;5027247;28;20491;-66
2023/10/21 00:42:40;;;;;;;4.30;4.20;;;21.00;98.70;;;;;;5027189;28;20514;-66
2023/10/21 00:45:08;;;;;;;4.50;4.50;;;21.00;98.70;;;;;;5023740;28;20465;-66
2023/10/21 00:47:35;;;;;;;4.03;4.03;;;21.00;98.70;;;;;;5023365;28;20477;-66
2023/10/21 00:50:04;;;;;;;4.30;4.23;;;21.00;99.10;;;;;;5025731;28;20469;-66
2023/10/21 00:52:31;;;;;;;4.93;4.83;;;21.00;98.80;;;;;;5026495;28;20471;-66
2023/10/21 00:55:01;;;;;;;4.57;4.47;;;21.00;98.80;;;;;;5024608;28;20836;-66
2023/10/21 00:57:29;;;;;;;4.60;4.50;;;21.00;98.70;;;;;;5023359;28;20478;-66
2023/10/21 00:59:56;;;;;;;4.30;4.23;;;21.00;98.80;;;;;;5025554;28;20483;-66
2023/10/21 01:02:23;;;;;;;4.30;4.30;;;21.00;98.80;;;;;;5023564;28;20493;-66
2023/10/21 01:04:50;;;;;;;4.73;4.53;;;21.00;98.80;;;;;;5023666;28;20535;-66
2023/10/21 01:07:18;;;;;;;4.13;4.03;;;21.00;98.70;;;;;;5026666;28;20511;-66
2023/10/21 01:09:45;;;;;;;4.07;4.00;;;21.00;98.80;;;;;;5026310;28;21068;-65
2023/10/21 01:12:12;;;;;;;4.50;4.30;;;21.00;98.80;;;;;;5023092;28;20505;-66
2023/10/21 01:14:39;;;;;;;4.40;4.30;;;21.00;98.80;;;;;;5023086;28;20501;-66
2023/10/21 01:17:08;;;;;;;5.27;4.97;;;21.00;98.80;;;;;;5025668;28;20563;-66
2023/10/21 01:19:35;;;;;;;4.20;4.20;;;21.00;98.80;;;;;;5026006;28;20460;-66
2023/10/21 01:22:02;;;;;;;5.17;4.77;;;21.00;98.80;;;;;;5023831;28;20558;-66
2023/10/21 01:24:30;;;;;;;5.07;4.83;;;21.00;98.80;;;;;;5022905;28;20505;-66
2023/10/21 01:26:57;;;;;;;4.40;4.30;;;21.00;98.80;;;;;;5023654;28;20517;-66
2023/10/21 01:29:24;;;;;;;4.30;4.20;;;21.00;98.80;;;;;;5026276;28;20477;-65
2023/10/21 01:31:51;;;;;;;4.60;4.40;;;21.00;98.90;;;;;;5025297;28;20962;-66
2023/10/21 01:34:18;;;;;;;4.43;4.33;;;21.00;98.90;;;;;;5022781;28;20477;-66
2023/10/21 01:36:45;;;;;;;4.93;4.83;;;21.00;98.90;;;;;;5022180;28;20571;-66
2023/10/21 01:39:12;;;;;;;4.10;4.00;;;21.00;98.90;;;;;;5014887;28;20469;-66
2023/10/21 01:41:40;;;;;;;4.03;3.93;;;21.00;98.90;;;;;;5022512;28;20468;-66
2023/10/21 01:44:07;;;;;;;4.30;4.30;;;20.90;98.90;;;;;;5025074;28;20465;-66
2023/10/21 01:46:34;;;;;;;4.53;4.33;;;21.00;99.00;;;;;;5024994;28;20466;-66
2023/10/21 01:49:01;;;;;;;4.57;4.47;;;21.00;99.00;;;;;;5024507;28;20498;-66
2023/10/21 01:51:28;;;;;;;4.70;4.60;;;21.00;99.00;;;;;;5026049;28;20476;-66
2023/10/21 01:53:55;;;;;;;4.67;4.57;;;21.00;98.90;;;;;;5017080;28;20474;-66
2023/10/21 01:56:22;;;;;;;4.30;4.20;;;21.00;99.00;;;;;;5025479;28;20479;-66
2023/10/21 01:58:50;;;;;;;4.93;4.77;;;21.00;99.00;;;;;;5025313;28;20441;-66
2023/10/21 02:01:17;;;;;;;4.30;4.20;;;21.00;99.00;;;;;;5022157;28;20481;-67
2023/10/21 02:03:43;;;;;;;4.90;4.80;;;21.00;99.00;;;;;;5021853;28;20489;-66
2023/10/21 02:06:11;;;;;;;4.43;4.33;;;20.90;99.00;;;;;;5025166;28;20873;-66
2023/10/21 02:08:38;;;;;;;4.97;4.87;;;21.00;99.10;;;;;;5022398;28;20514;-66
2023/10/21 02:11:04;;;;;;;4.90;4.80;;;20.90;99.10;;;;;;5022545;28;20480;-66
2023/10/21 02:13:31;;;;;;;4.70;4.60;;;20.90;99.10;;;;;;5021548;28;20535;-66
2023/10/21 02:15:59;;;;;;;4.60;4.50;;;20.90;99.10;;;;;;5023394;28;20477;-66
2023/10/21 02:18:27;;;;;;;4.70;4.60;;;21.00;99.20;;;;;;5025422;28;20497;-66
2023/10/21 02:20:53;;;;;;;4.00;4.00;;;20.90;99.10;;;;;;5024395;28;20445;-66
2023/10/21 02:23:20;;;;;;;4.80;4.70;;;20.90;99.10;;;;;;5021225;28;20532;-66
2023/10/21 02:25:47;;;;;;;4.63;4.57;;;20.90;99.20;;;;;;5021693;28;20473;-66
2023/10/21 02:28:14;;;;;;;4.80;4.70;;;20.90;99.10;;;;;;5014073;28;20509;-66
2023/10/21 02:30:42;;;;;;;4.40;4.30;;;20.90;99.10;;;;;;5021711;28;20477;-66
2023/10/21 02:33:11;;;;;;;4.63;4.53;;;20.90;99.10;;;;;;5025441;28;21046;-66
2023/10/21 02:35:37;;;;;;;4.77;4.67;;;20.90;99.10;;;;;;5021298;28;20954;-66
2023/10/21 02:38:04;;;;;;;3.90;3.90;;;20.90;99.10;;;;;;5023222;28;20972;-66
2023/10/21 02:40:31;;;;;;;4.23;4.23;;;20.90;99.10;;;;;;5024831;28;20483;-66
2023/10/21 02:42:58;;;;;;;4.63;4.53;;;20.90;99.10;;;;;;5057900;22;20527;-70
2023/10/21 02:45:26;;;;;;;4.90;4.73;;;20.90;99.10;;;;;;5053563;28;20437;-71
2023/10/21 02:47:53;;;;;;;5.00;4.90;;;20.90;99.10;;;;;;5054029;28;20567;-70
2023/10/21 02:50:21;;;;;;;5.37;4.87;;;20.90;99.00;;;;;;5053513;28;20923;-70
2023/10/21 02:52:49;;;;;;;5.53;5.40;;;20.90;99.10;;;;;;5061021;28;20494;-70
2023/10/21 02:55:16;;;;;;;5.03;4.93;;;20.90;99.10;;;;;;5065148;28;20817;-70
2023/10/21 02:57:44;;;;;;;5.47;5.37;;;20.90;99.20;;;;;;5073312;28;20482;-70
2023/10/21 03:00:15;;;;;;;5.63;5.53;;;20.90;99.20;;;;;;5070592;28;20524;-70
2023/10/21 03:02:42;;;;;;;5.87;5.77;;;20.90;99.20;;;;;;5068846;28;20830;-70
2023/10/21 03:05:09;;;;;;;5.50;5.40;;;20.90;99.30;;;;;;5073042;28;20478;-70
2023/10/21 03:07:38;;;;;;;5.07;4.97;;;20.90;99.30;;;;;;5072811;28;20479;-70
2023/10/21 03:10:06;;;;;;;5.43;5.33;;;20.90;99.30;;;;;;5071314;28;20443;-70
2023/10/21 03:12:33;;;;;;;5.83;5.63;;;20.90;99.40;;;;;;5067023;28;20464;-70
2023/10/21 03:15:01;;;;;;;5.30;5.20;;;20.90;99.80;;;;;;5072530;28;20439;-70
2023/10/21 03:17:28;;;;;;;5.70;5.60;;;20.90;99.40;;;;;;5072754;28;20552;-70
2023/10/21 03:19:55;;;;;;;4.60;4.50;;;20.90;99.30;;;;;;5072333;28;20509;-70
2023/10/21 03:22:22;;;;;;;5.03;4.83;;;20.90;99.40;;;;;;5066090;28;20462;-71
2023/10/21 03:24:50;;;;;;;4.47;4.37;;;20.90;99.60;;;;;;5073030;28;20467;-70
2023/10/21 03:27:17;;;;;;;5.00;4.80;;;20.90;99.70;;;;;;5057347;28;20882;-71
2023/10/21 03:29:44;;;;;;;4.63;4.53;;;20.90;99.80;;;;;;5072317;28;20492;-70
2023/10/21 03:32:11;;;;;;;4.83;4.73;;;20.90;99.80;;;;;;5071516;28;20472;-70
2023/10/21 03:34:38;;;;;;;4.87;4.77;;;20.90;99.80;;;;;;5072318;28;20451;-71
2023/10/21 03:37:05;;;;;;;5.13;5.03;;;20.90;99.90;;;;;;5072095;28;20467;-70
2023/10/21 03:39:32;;;;;;;6.20;5.70;;;20.90;99.90;;;;;;5071701;28;20486;-70
2023/10/21 03:42:00;;;;;;;4.97;4.87;;;20.90;99.90;;;;;;5072270;28;20440;-71
2023/10/21 03:44:28;;;;;;;4.50;4.40;;;20.90;99.90;;;;;;5072484;28;20468;-69
2023/10/21 03:46:56;;;;;;;5.00;4.83;;;20.90;99.90;;;;;;5069955;28;20496;-67
2023/10/21 03:49:26;;;;;;;4.60;4.40;;;21.10;99.90;;;;;;5064031;28;20470;-67
2023/10/21 03:51:55;;;;;;;4.77;4.57;;;21.20;99.90;;;;;;5072057;28;20468;-67
2023/10/21 03:54:24;;;;;;;4.77;4.37;;;21.30;99.50;;;;;;5070206;28;20533;-68
2023/10/21 03:56:58;;;;;;;5.07;4.67;;;21.30;99.30;;;;;;5070404;28;20483;-69
2023/10/21 03:59:31;;;;;;;7.03;6.57;;;21.30;99.20;;;;;;5065256;28;20642;-72
2023/10/21 04:02:15;;;;;;;6.80;6.40;;;21.40;99.50;;;;;;5071921;28;20492;-68
2023/10/21 04:04:48;;;;;;;7.20;6.90;;;21.50;99.30;;;;;;5071602;28;20518;-72
2023/10/21 04:07:24;;;;;;;7.60;7.20;;;21.50;99.10;;;;;;5070928;28;20530;-71
2023/10/21 04:09:57;;;;;;;7.43;7.00;;;21.50;99.60;;;;;;5071193;28;20458;-71
2023/10/21 04:12:32;;;;;;;7.70;7.30;;;21.50;98.70;;;;;;5064493;28;20490;-69
2023/10/21 04:15:00;;;;;;;7.33;7.03;;;21.60;98.70;;;;;;5071488;28;20515;-68
2023/10/21 04:17:27;;;;;;;6.70;6.50;;;21.60;99.00;;;;;;5071235;28;20962;-72
2023/10/21 04:19:54;;;;;;;7.50;7.20;;;21.60;99.00;;;;;;5071633;28;20447;-70
2023/10/21 04:22:21;;;;;;;6.87;6.63;;;21.70;98.90;;;;;;5071668;28;20491;-68
2023/10/21 04:24:48;;;;;;;7.30;7.10;;;21.70;98.60;;;;;;5071966;28;20463;-68
2023/10/21 04:27:14;;;;;;;7.63;7.20;;;21.70;98.60;;;;;;5071003;28;20478;-68
2023/10/21 04:29:41;;;;;;;7.97;7.60;;;21.80;98.60;;;;;;5071656;28;20474;-68
2023/10/21 04:32:10;;;;;;;4.90;4.70;;;21.80;98.50;;;;;;5071470;28;20479;-69
2023/10/21 04:34:37;;;;;;;5.53;5.10;;;21.80;99.30;;;;;;5071622;28;20439;-67
2023/10/21 04:37:03;;;;;;;5.23;4.90;;;21.80;99.40;;;;;;5070370;28;20475;-66
2023/10/21 04:39:30;;;;;;;4.63;4.53;;;21.80;99.20;;;;;;5071120;28;20459;-72
2023/10/21 04:41:57;;;;;;;4.83;4.67;;;21.90;99.20;;;;;;5071138;28;20471;-68
2023/10/21 04:44:25;;;;;;;4.80;4.70;;;21.90;99.10;;;;;;5071069;28;20541;-69
2023/10/21 04:46:52;;;;;;;5.10;5.00;;;22.00;99.00;;;;;;5071419;28;20451;-69
2023/10/21 04:49:20;;;;;;;5.33;4.83;;;22.00;98.60;;;;;;5071492;28;20507;-70
2023/10/21 04:51:47;;;;;;;5.10;4.73;;;22.10;98.60;;;;;;5072125;28;20489;-69
2023/10/21 04:54:14;;;;;;;5.23;5.03;;;22.10;98.70;;;;;;5071074;28;20892;-70
2023/10/21 04:56:41;;;;;;;5.37;5.17;;;22.10;98.50;;;;;;5071796;28;20439;-70
2023/10/21 04:59:08;;;;;;;4.80;4.60;;;22.10;98.40;;;;;;5071597;28;20477;-69
2023/10/21 05:01:35;;;;;;;4.80;4.53;;;22.10;98.40;;;;;;5074468;28;20467;-70
2023/10/21 05:04:02;;;;;;;5.10;5.00;;;22.20;98.40;;;;;;5075312;28;20989;-71
2023/10/21 05:06:30;;;;;;;5.80;5.10;;;22.20;98.20;;;;;;5075217;28;20486;-69
2023/10/21 05:08:58;;;;;;;5.77;5.40;;;22.20;98.10;;;;;;5074739;28;21017;-70
2023/10/21 05:11:26;;;;;;;5.20;5.10;;;22.20;98.00;;;;;;5074665;28;20443;-68
2023/10/21 05:13:55;;;;;;;4.70;4.57;;;22.20;98.20;;;;;;5074250;28;20474;-67
2023/10/21 05:16:23;;;;;;;5.60;5.10;;;22.30;97.60;;;;;;5066743;28;20435;-67
2023/10/21 05:18:52;;;;;;;4.80;4.70;;;22.30;97.50;;;;;;5074098;28;20478;-68
2023/10/21 05:21:19;;;;;;;5.70;5.60;;;22.30;97.60;;;;;;5065937;28;20442;-66
2023/10/21 05:23:51;;;;;;;5.43;5.20;;;22.30;97.60;;;;;;5073812;28;20467;-66
2023/10/21 05:26:21;;;;;;;4.83;4.53;;;22.40;97.60;;;;;;5074005;28;20463;-65
2023/10/21 05:28:51;;;;;;;5.10;4.90;;;22.40;97.50;;;;;;5074147;28;20474;-65
2023/10/21 05:31:20;;;;;;;5.17;4.90;;;22.40;97.40;;;;;;5074363;28;20471;-66
2023/10/21 05:33:48;;;;;;;4.87;4.67;;;22.40;97.40;;;;;;5073433;28;21024;-67
2023/10/21 05:36:16;;;;;;;4.90;4.63;;;22.40;97.40;;;;;;5074004;28;20478;-67
2023/10/21 05:38:46;;;;;;;7.27;6.77;;;22.50;97.30;;;;;;5074178;28;20462;-66
2023/10/21 05:41:20;;;;;;;4.80;4.70;;;22.50;97.10;;;;;;5074408;28;20865;-65
2023/10/21 05:43:49;;;;;;;5.00;4.90;;;22.50;97.00;;;;;;5073695;28;21024;-69
2023/10/21 05:46:18;;;;;;;5.00;4.90;;;22.40;97.20;;;;;;5074142;28;20439;-66
2023/10/21 05:48:45;;;;;;;5.63;4.80;;;22.50;97.00;;;;;;5074395;28;20528;-67
2023/10/21 05:51:13;;;;;;;5.17;5.00;;;22.50;97.10;;;;;;5072434;28;20482;-65
2023/10/21 05:53:42;;;;;;;4.90;4.80;;;22.50;97.20;;;;;;5066439;28;20470;-66
2023/10/21 05:56:12;;;;;;;4.40;4.23;;;22.50;97.10;;;;;;5072325;28;20819;-66
2023/10/21 05:58:42;;;;;;;4.70;4.60;;;22.50;97.00;;;;;;5074547;28;20445;-66
2023/10/21 06:01:12;;;;;;;5.30;5.10;;;22.50;96.90;;;;;;5074153;28;20526;-66
2023/10/21 06:03:41;;;;;;;5.37;4.97;;;22.60;96.90;;;;;;5070754;28;20482;-67
2023/10/21 06:06:10;;;;;;;5.47;5.23;;;22.60;96.90;;;;;;5063258;28;20491;-66
2023/10/21 06:08:44;;;;;;;5.10;5.00;;;22.60;96.80;;;;;;5064590;28;20479;-66
2023/10/21 06:11:17;;;;;;;5.73;5.43;;;22.60;96.80;;;;;;5072898;28;20934;-65
2023/10/21 06:13:48;;;;;;;5.50;5.30;;;22.60;96.90;;;;;;5073130;28;20538;-66
2023/10/21 06:19:05;;;;;;;5.10;4.90;;;22.60;96.40;;;;;;5073688;28;20427;-66
2023/10/21 06:21:33;;;;;;;5.00;4.90;;;22.70;96.60;;;;;;5072745;28;20521;-69
2023/10/21 06:24:00;;;;;;;4.83;4.67;;;22.70;96.70;;;;;;5067229;28;20947;-71
2023/10/21 06:26:27;;;;;;;5.53;5.33;;;22.70;96.50;;;;;;5072393;28;20444;-68
2023/10/21 06:28:57;;;;;;;5.97;5.73;;;22.70;96.30;;;;;;5074816;28;20518;-67
2023/10/21 06:31:24;;;;;;;5.30;5.10;;;22.70;96.30;;;;;;5065607;28;20482;-67
2023/10/21 06:33:54;;;;;;;5.70;5.60;;;22.70;96.30;;;;;;5073801;28;20506;-67
2023/10/21 06:36:22;;;;;;;4.80;4.70;;;22.70;96.40;;;;;;5074333;28;20439;-68
2023/10/21 06:38:50;;;;;;;5.20;5.10;;;22.70;96.20;;;;;;5074456;28;20450;-69
2023/10/21 06:41:20;;;;;;;5.70;5.40;;;22.70;96.10;;;;;;5074705;28;20432;-68
2023/10/21 06:43:47;;;;;;;5.40;5.30;;;22.80;96.10;;;;;;5073611;28;20881;-67
2023/10/21 06:46:21;;;;;;;4.90;4.80;;;22.80;96.00;;;;;;5074345;28;20493;-67
2023/10/21 06:48:48;;;;;;;7.23;6.77;;;22.80;95.90;;;;;;5073886;28;20514;-68
2023/10/21 06:51:16;;;;;;;6.43;6.23;;;22.70;95.80;;;;;;5074194;28;20573;-68
2023/10/21 06:53:43;;;;;;;5.83;5.63;;;22.80;95.70;;;;;;5073535;28;20827;-68
2023/10/21 06:56:12;;;;;;;6.87;6.47;;;22.70;95.40;;;;;;5074014;28;20532;-68
2023/10/21 06:58:40;;;;;;;7.20;6.50;;;22.80;95.60;;;;;;5073748;28;20504;-68
2023/10/21 07:01:09;;;;;;;11.30;7.70;;;22.80;96.10;;;;;;5073719;28;20475;-68
2023/10/21 07:03:39;;;;;;;15.13;8.30;;;22.70;96.70;;;;;;5073130;28;20857;-68
2023/10/21 07:06:06;;;;;;;9.60;8.80;;;22.80;97.50;;;;;;5072910;28;20498;-68
2023/10/21 07:08:38;;;;;;;11.53;8.90;;;22.80;98.20;;;;;;5073232;28;20444;-68
2023/10/21 07:11:09;;;;;;;19.33;9.97;;;22.80;98.90;;;;;;5072465;28;20463;-68
2023/10/21 07:16:20;;;;;;;9.90;8.77;;;22.80;99.90;;;;;;5065543;28;20455;-66
2023/10/21 07:18:49;;;;;;;10.50;8.23;;;22.80;99.90;;;;;;5053112;28;20486;-65
2023/10/21 07:21:16;;;;;;;20.00;9.73;;;22.80;99.90;;;;;;5052659;28;20443;-65
2023/10/21 07:23:48;;;;;;;7.80;7.20;;;22.80;99.90;;;;;;5053520;28;20471;-67
2023/10/21 07:26:23;;;;;;;8.80;7.57;;;22.80;99.90;;;;;;5053421;28;20471;-65
2023/10/21 07:28:53;;;;;;;8.50;7.73;;;22.80;99.90;;;;;;5053085;28;20519;-66
2023/10/21 07:31:21;;;;;;;7.70;7.40;;;22.80;99.90;;;;;;5053243;28;20476;-67
2023/10/21 07:33:53;;;;;;;7.83;7.33;;;22.80;99.90;;;;;;5069554;28;20988;-66
2023/10/21 07:36:26;;;;;;;11.50;10.70;;;22.80;99.90;;;;;;5056523;28;20509;-66
2023/10/21 07:38:54;;;;;;;15.00;14.30;;;22.80;99.90;;;;;;5058908;28;20202;-66
2023/10/21 07:41:26;;;;;;;16.03;15.10;;;22.80;99.90;;;;;;5060309;28;20449;-65
2023/10/21 07:44:00;;;;;;;14.00;13.30;;;22.90;98.80;;;;;;5070133;28;20806;-64
2023/10/21 07:46:28;;;;;;;14.97;14.37;;;23.00;98.10;;;;;;5072576;28;20873;-68
2023/10/21 07:48:57;;;;;;;7.17;6.83;;;22.90;97.60;;;;;;5069201;28;20528;-70
2023/10/21 07:51:29;;;;;;;7.87;7.37;;;23.00;97.30;;;;;;5071083;28;20443;-69
2023/10/21 07:54:05;;;;;;;6.90;6.30;;;23.00;97.40;;;;;;5072683;28;20513;-68
2023/10/21 07:56:34;;;;;;;6.60;6.30;;;23.00;97.50;;;;;;5072914;28;20442;-68
2023/10/21 07:59:08;;;;;;;6.87;6.53;;;23.00;97.50;;;;;;5072831;28;20713;-69
2023/10/21 08:01:38;;;;;;;6.37;5.97;;;23.00;97.50;;;;;;5072718;28;20526;-68
2023/10/21 08:04:29;;;;;;;7.60;7.17;;;23.00;97.40;;;;;;5071796;28;20455;-69
2023/10/21 08:06:57;;;;;;;6.93;6.63;;;23.00;97.30;;;;;;5072621;28;20446;-68
2023/10/21 08:09:27;;;;;;;7.10;6.90;;;23.00;97.20;;;;;;5072331;28;21012;-69
2023/10/21 08:11:57;;;;;;;6.80;6.50;;;23.00;97.20;;;;;;5072615;28;20444;-69
2023/10/21 08:14:31;;;;;;;6.40;6.10;;;23.00;97.10;;;;;;5072597;28;20446;-70
2023/10/21 08:19:56;;;;;;;6.37;6.10;;;23.00;97.00;;;;;;5072381;28;20446;-69
2023/10/21 08:22:26;;;;;;;7.50;7.00;;;23.10;97.00;;;;;;5072831;28;20903;-69
2023/10/21 08:25:00;;;;;;;6.73;6.40;;;23.10;97.00;;;;;;5072691;28;20866;-69
2023/10/21 08:27:28;;;;;;;6.60;6.20;;;23.00;96.90;;;;;;5072621;28;20478;-69
2023/10/21 08:29:54;;;;;;;6.63;6.43;;;23.10;96.90;;;;;;5072681;28;20478;-69
2023/10/21 08:32:21;;;;;;;7.00;6.40;;;23.10;96.90;;;;;;5072881;28;20482;-69
2023/10/21 08:34:50;;;;;;;6.57;6.37;;;23.10;96.80;;;;;;5072814;28;20479;-69
2023/10/21 08:37:16;;;;;;;6.40;6.20;;;23.00;96.70;;;;;;5076306;28;20473;-70
2023/10/21 08:39:47;;;;;;;6.60;6.37;;;23.10;96.70;;;;;;5076154;28;20466;-69
2023/10/21 08:42:16;;;;;;;6.83;6.53;;;23.10;96.70;;;;;;5097305;22;20479;-69
2023/10/21 08:44:44;;;;;;;7.23;6.57;;;23.10;96.60;;;;;;5016401;28;20441;-68
2023/10/21 08:47:13;;;;;;;6.40;6.20;;;23.10;96.60;;;;;;5015931;28;20477;-68
2023/10/21 08:49:41;;;;;;;7.23;7.03;;;23.10;96.50;;;;;;5019966;28;20560;-68
2023/10/21 08:52:11;;;;;;;6.10;5.90;;;23.10;96.50;;;;;;5016741;28;20461;-69
2023/10/21 08:54:39;;;;;;;6.93;5.80;;;23.00;95.90;;;;;;5016101;28;20541;-67
2023/10/21 08:57:06;;;;;;;5.83;5.63;;;22.90;96.00;;;;;;5015441;28;20473;-68
2023/10/21 08:59:33;;;;;;;7.50;7.20;;;22.90;96.40;;;;;;5015406;28;20477;-72
2023/10/21 09:02:00;;;;;;;6.17;5.93;;;22.80;97.00;;;;;;5015439;28;20442;-73
2023/10/21 09:04:28;;;;;;;8.77;8.10;;;22.80;97.20;;;;;;5015249;28;20516;-71
2023/10/21 09:06:57;;;;;;;7.53;7.07;;;22.80;97.00;;;;;;5015478;28;20445;-71
2023/10/21 09:09:27;;;;;;;6.50;6.30;;;22.80;97.20;;;;;;5015380;28;20474;-71
2023/10/21 09:12:04;;;;;;;8.07;7.57;;;22.70;97.50;;;;;;5023519;28;20949;-71
2023/10/21 09:14:32;;;;;;;7.13;6.70;;;22.60;97.90;;;;;;5007323;28;20953;-71
2023/10/21 09:16:59;;;;;;;8.13;7.63;;;22.60;98.10;;;;;;5015285;28;20446;-71
2023/10/21 09:19:26;;;;;;;32.53;18.40;;;22.60;98.20;;;;;;5015085;28;20486;-71
2023/10/21 09:21:53;;;;;;;115.00;41.80;;;22.60;98.30;;;;;;5011790;28;20460;-70
2023/10/21 09:24:23;;;;;;;100.00;40.20;;;22.60;98.60;;;;;;5014843;28;20505;-71
2023/10/21 09:26:51;;;;;;;128.63;44.27;;;22.60;98.90;;;;;;5014677;28;20448;-70
2023/10/21 09:29:20;;;;;;;153.43;49.20;;;22.60;99.20;;;;;;5014829;28;20450;-73
2023/10/21 09:31:55;;;;;;;180.30;57.47;;;22.60;99.40;;;;;;5015125;28;21068;-75
2023/10/21 09:37:26;;;;;;;194.83;65.50;;;22.80;99.90;;;;;;5015264;28;20446;-71
2023/10/21 09:39:55;;;;;;;164.33;63.63;;;22.90;99.90;;;;;;5014535;28;20499;-71
2023/10/21 09:42:25;;;;;;;170.23;56.03;;;22.90;99.90;;;;;;5019859;28;20497;-75
2023/10/21 09:44:52;;;;;;;171.83;59.63;;;22.90;99.90;;;;;;5017035;28;21522;-70
2023/10/21 09:47:21;;;;;;;172.20;56.03;;;23.00;99.90;;;;;;5020323;28;20484;-74
2023/10/21 09:49:52;;;;;;;191.35;70.78;;;23.00;99.90;;;;;;5014604;28;20447;-71
2023/10/21 09:52:30;;;;;;;168.70;71.07;;;23.00;99.90;;;;;;5016115;28;20230;-73
2023/10/21 09:55:10;;;;;;;150.50;67.90;;;23.10;99.90;;;;;;5007123;28;20449;-72
2023/10/21 09:57:42;;;;;;;153.60;66.07;;;23.20;99.80;;;;;;5015482;28;20819;-67
2023/10/21 10:00:11;;;;;;;173.33;65.30;;;23.20;99.90;;;;;;5014406;28;20508;-69
2023/10/21 10:02:47;;;;;;;148.77;63.47;;;23.20;99.40;;;;;;5015810;28;20470;-68
2023/10/21 10:05:17;;;;;;;156.33;63.00;;;23.30;99.00;;;;;;5011699;28;20953;-70
2023/10/21 10:07:49;;;;;;;132.47;55.23;;;23.30;99.00;;;;;;5022332;28;20457;-70
2023/10/21 10:10:19;;;;;;;123.23;55.20;;;23.40;98.50;;;;;;5015664;28;20504;-69
2023/10/21 10:12:54;;;;;;;101.83;52.73;;;23.50;97.90;;;;;;5014472;28;20501;-70
2023/10/21 10:15:35;;;;;;;104.77;54.00;;;23.50;97.50;;;;;;5018144;28;20873;-69
2023/10/21 10:20:48;;;;;;;98.07;57.23;;;23.60;96.90;;;;;;5016335;28;20437;-69
2023/10/21 10:23:16;;;;;;;83.33;46.93;;;23.60;96.60;;;;;;5018215;28;20473;-69
2023/10/21 10:25:49;;;;;;;94.07;47.90;;;23.70;96.40;;;;;;5024830;28;20534;-68
2023/10/21 10:28:20;;;;;;;103.37;49.33;;;23.70;96.30;;;;;;5016850;28;20833;-67
2023/10/21 10:30:49;;;;;;;119.63;53.90;;;23.70;96.00;;;;;;5014624;28;20911;-68
2023/10/21 10:33:22;;;;;;;114.57;37.20;;;23.70;96.90;;;;;;5013831;28;20478;-69
2023/10/21 10:35:51;;;;;;;93.23;37.83;;;23.70;97.50;;;;;;5015855;28;21125;-69
2023/10/21 10:38:25;;;;;;;95.77;37.50;;;23.70;97.40;;;;;;5015266;28;20464;-67
2023/10/21 10:40:55;;;;;;;99.73;37.07;;;23.70;97.30;;;;;;5017824;28;20456;-67
2023/10/21 10:43:28;;;;;;;83.20;34.20;;;23.80;97.10;;;;;;5017057;28;20513;-67
2023/10/21 10:45:57;;;;;;;72.37;31.77;;;23.80;96.90;;;;;;5013441;28;20474;-71
2023/10/21 10:48:25;;;;;;;79.20;30.40;;;23.80;96.70;;;;;;5017440;28;20510;-67
2023/10/21 10:51:00;;;;;;;74.90;28.10;;;23.80;96.10;;;;;;5017979;28;20507;-67
2023/10/21 10:53:29;;;;;;;77.70;29.50;;;23.80;96.10;;;;;;5022152;28;20499;-67
2023/10/21 10:55:59;;;;;;;81.17;30.63;;;23.90;95.80;;;;;;5024040;28;20484;-67
2023/10/21 10:58:32;;;;;;;66.50;27.90;;;23.90;95.90;;;;;;5011441;28;20486;-68
2023/10/21 11:01:00;;;;;;;73.27;29.00;;;24.00;95.40;;;;;;5013379;28;20458;-68
2023/10/21 11:03:29;;;;;;;57.73;27.27;;;24.00;95.40;;;;;;5022912;28;20520;-69
2023/10/21 11:05:59;;;;;;;70.37;28.67;;;24.10;95.40;;;;;;5023906;28;20875;-67
2023/10/21 11:08:27;;;;;;;57.17;25.90;;;24.10;95.30;;;;;;5014293;28;20561;-71
2023/10/21 11:11:03;;;;;;;62.03;24.90;;;24.10;95.20;;;;;;5012879;28;20528;-69
2023/10/21 11:13:33;;;;;;;66.90;28.63;;;24.10;95.00;;;;;;5021681;28;20530;-69
2023/10/21 11:16:04;;;;;;;61.90;28.73;;;23.80;95.10;;;;;;5012354;28;20449;-69
2023/10/21 11:18:36;;;;;;;60.57;27.60;;;23.70;95.70;;;;;;5012961;28;20452;-69
2023/10/21 11:21:09;;;;;;;57.10;26.53;;;23.80;96.80;;;;;;5012817;28;20941;-67
2023/10/21 11:23:43;;;;;;;60.13;25.77;;;23.90;96.60;;;;;;5015060;28;20976;-67
2023/10/21 11:26:16;;;;;;;51.10;21.30;;;23.90;96.30;;;;;;5015001;28;20871;-67
2023/10/21 11:28:45;;;;;;;43.40;20.63;;;24.00;95.90;;;;;;5013388;28;20449;-67
2023/10/21 11:31:13;;;;;;;42.50;20.67;;;24.00;95.60;;;;;;5012750;28;20561;-68
2023/10/21 11:33:43;;;;;;;47.43;22.30;;;24.00;95.60;;;;;;5019331;28;21004;-68
2023/10/21 11:36:12;;;;;;;39.23;20.43;;;24.10;95.50;;;;;;5016753;28;20454;-68
2023/10/21 11:38:40;;;;;;;50.30;20.80;;;24.10;95.30;;;;;;5004663;28;20465;-68
2023/10/21 11:41:13;;;;;;;49.97;21.13;;;24.10;95.40;;;;;;5007351;28;20458;-68
2023/10/21 11:43:51;;;;;;;37.67;20.60;;;24.10;95.20;;;;;;5017820;28;20466;-69
2023/10/21 11:46:22;;;;;;;50.57;21.87;;;24.00;95.10;;;;;;5019088;28;20492;-67
2023/10/21 11:48:51;;;;;;;40.17;18.77;;;24.10;95.00;;;;;;5011515;28;20941;-67
2023/10/21 11:51:33;;;;;;;42.47;21.10;;;24.10;94.90;;;;;;5014385;28;20567;-67
2023/10/21 11:54:01;;;;;;;38.20;17.80;;;24.10;94.90;;;;;;5012881;28;20470;-68
2023/10/21 12:11:04;;;;;;;33.23;15.93;;;24.20;95.70;;;;;;5013101;28;20573;-68
2023/10/21 12:13:49;;;;;;;37.57;17.13;;;24.20;94.40;;;;;;5017667;28;20474;-68
2023/10/21 12:16:30;;;;;;;27.97;16.97;;;24.20;94.30;;;;;;5019093;28;20453;-66
2023/10/21 12:19:17;;;;;;;32.37;16.23;;;24.30;94.00;;;;;;5021925;28;20460;-66
2023/10/21 12:35:51;;;;;;;24.63;13.40;;;24.30;94.00;;;;;;5004342;28;20434;-69
2023/10/21 12:38:23;;;;;;;25.70;14.07;;;24.30;93.90;;;;;;5015288;28;20460;-70
2023/10/21 12:43:41;;;;;;;27.50;14.70;;;24.40;93.80;;;;;;5009964;28;20453;-70
2023/10/21 12:46:17;;;;;;;19.87;14.40;;;24.40;93.70;;;;;;5023090;28;20476;-68
2023/10/21 12:48:47;;;;;;;19.23;13.07;;;24.50;93.70;;;;;;5008082;28;20452;-70
2023/10/21 12:51:16;;;;;;;24.83;13.67;;;24.50;93.70;;;;;;5015082;28;20473;-70
2023/10/21 12:53:51;;;;;;;25.23;12.53;;;24.50;93.20;;;;;;5021333;28;20470;-70
2023/10/21 12:56:20;;;;;;;20.63;12.53;;;24.50;93.00;;;;;;5015110;28;20456;-69
2023/10/21 12:58:47;;;;;;;22.37;12.17;;;24.50;92.80;;;;;;5008412;28;20450;-70
2023/10/21 13:01:19;;;;;;;21.97;12.60;;;24.40;92.90;;;;;;5023148;28;20547;-70
2023/10/21 13:04:02;;;;;;;28.67;15.57;;;24.40;93.00;;;;;;5014766;28;20454;-72
2023/10/21 13:06:30;;;;;;;30.50;14.13;;;24.30;93.00;;;;;;5021820;28;20951;-69
2023/10/21 13:08:58;;;;;;;18.17;12.20;;;24.30;93.10;;;;;;5015286;28;20513;-71
2023/10/21 13:11:29;;;;;;;19.20;13.03;;;24.30;93.40;;;;;;5015279;28;20509;-66
2023/10/21 13:14:01;;;;;;;26.23;12.93;;;24.20;93.30;;;;;;5014306;28;20845;-71
2023/10/21 13:16:31;;;;;;;19.90;13.30;;;24.20;93.30;;;;;;5022703;28;20453;-69
2023/10/21 13:19:00;;;;;;;27.27;13.97;;;24.20;94.50;;;;;;5018501;28;20558;-70
2023/10/21 13:21:32;;;;;;;19.10;12.70;;;24.10;93.90;;;;;;5014594;28;20537;-70
2023/10/21 13:24:04;;;;;;;26.27;14.07;;;24.10;93.90;;;;;;5009382;28;20473;-70
2023/10/21 13:26:34;;;;;;;14.30;11.93;;;24.10;93.90;;;;;;5019718;28;20967;-67
2023/10/21 13:29:04;;;;;;;18.27;11.80;;;24.10;93.80;;;;;;5014263;28;20450;-67
2023/10/21 13:31:36;;;;;;;29.93;12.97;;;24.10;93.80;;;;;;5016654;28;20481;-65
2023/10/21 13:34:06;;;;;;;26.20;13.23;;;24.00;93.80;;;;;;5016633;28;20484;-68
2023/10/21 13:36:40;;;;;;;21.03;11.83;;;24.00;94.40;;;;;;5014969;28;20891;-68